Time;durP1;ratioP1;P1;durP2;ratioP2;P2;SDS_P1;SDS_P2;PMS_P1;PMS_P2;Temp;Humidity;BMP_temperature;BMP_pressure;BME280_temperature;BME280_humidity;BME280_pressure;Samples;Min_cycle;Max_cycle;Signal;HPM_P1;HPM_P2
2024/03/03 00:00:12;;;;;;;;;;;;;;;;;;6288758;28;19983;-60
2024/03/03 00:03:16;;;;;;;;;;;;;;;;;;6288371;28;19984;-59
2024/03/03 00:06:19;;;;;;;;;;;;;;;;;;6289172;28;19979;-61
2024/03/03 00:09:24;;;;;;;;;;;;;;;;;;6288618;28;20090;-59
2024/03/03 00:12:28;;;;;;;;;;;;;;;;;;6289005;28;19979;-60
2024/03/03 00:15:32;;;;;;;;;;;;;;;;;;6288290;28;19987;-61
2024/03/03 00:18:37;;;;;;;;;;;;;;;;;;6288255;28;19984;-61
2024/03/03 00:21:41;;;;;;;;;;;;;;;;;;6287877;28;19996;-60
2024/03/03 00:24:46;;;;;;;;;;;;;;;;;;6288353;28;19988;-60
2024/03/03 00:27:50;;;;;;;;;;;;;;;;;;6288114;28;19987;-59
2024/03/03 00:30:54;;;;;;;;;;;;;;;;;;6286522;28;19980;-60
2024/03/03 00:33:58;;;;;;;;;;;;;;;;;;6288011;28;19983;-59
2024/03/03 00:37:01;;;;;;;;;;;;;;;;;;6288617;28;19983;-60
2024/03/03 00:40:07;;;;;;;;;;;;;;;;;;6286756;28;19991;-59
2024/03/03 00:43:11;;;;;;;;;;;;;;;;;;6286283;28;19996;-60
2024/03/03 00:46:14;;;;;;;;;;;;;;;;;;6287902;28;19979;-59
2024/03/03 00:49:18;;;;;;;;;;;;;;;;;;6287395;28;19983;-59
2024/03/03 00:52:22;;;;;;;;;;;;;;;;;;6288008;28;19984;-60
2024/03/03 00:55:27;;;;;;;;;;;;;;;;;;6287345;28;19995;-59
2024/03/03 00:58:31;;;;;;;;;;;;;;;;;;6287619;28;20264;-59
2024/03/03 01:01:34;;;;;;;;;;;;;;;;;;6287526;28;19988;-59
2024/03/03 01:04:38;;;;;;;;;;;;;;;;;;6287502;28;20000;-60
2024/03/03 01:07:42;;;;;;;;;;;;;;;;;;6286337;28;19984;-59
2024/03/03 01:10:47;;;;;;;;;;;;;;;;;;6286968;28;19987;-59
2024/03/03 01:13:50;;;;;;;;;;;;;;;;;;6287404;28;19987;-60
2024/03/03 01:16:54;;;;;;;;;;;;;;;;;;6287814;28;20141;-60
2024/03/03 01:19:57;;;;;;;;;;;;;;;;;;6286791;28;19983;-59
2024/03/03 01:23:01;;;;;;;;;;;;;;;;;;6285162;28;19979;-59
2024/03/03 01:26:06;;;;;;;;;;;;;;;;;;6261614;28;19984;-59
2024/03/03 01:29:09;;;;;;;;;;;;;;;;;;6260352;28;19988;-59
2024/03/03 01:32:13;;;;;;;;;;;;;;;;;;6262146;28;19980;-59
2024/03/03 01:35:17;;;;;;;;;;;;;;;;;;6293013;28;19988;-60
2024/03/03 01:38:20;;;;;;;;;;;;;;;;;;6259140;28;19980;-61
2024/03/03 01:41:25;;;;;;;;;;;;;;;;;;6260824;28;19992;-60
2024/03/03 01:44:29;;;;;;;;;;;;;;;;;;6260144;28;19987;-60
2024/03/03 01:47:32;;;;;;;;;;;;;;;;;;6262508;28;19992;-60
2024/03/03 01:50:36;;;;;;;;;;;;;;;;;;6261967;28;20291;-60
2024/03/03 01:53:39;;;;;;;;;;;;;;;;;;6292529;28;19984;-60
2024/03/03 01:56:44;;;;;;;;;;;;;;;;;;6260724;28;19988;-60
2024/03/03 01:59:48;;;;;;;;;;;;;;;;;;6259752;28;20252;-60
2024/03/03 02:02:51;;;;;;;;;;;;;;;;;;6260219;28;20222;-61
2024/03/03 02:05:55;;;;;;;;;;;;;;;;;;6292510;28;19987;-60
2024/03/03 02:08:58;;;;;;;;;;;;;;;;;;6260759;28;19988;-59
2024/03/03 02:12:04;;;;;;;;;;;;;;;;;;6281432;28;19983;-59
2024/03/03 02:15:10;;;;;;;;;;;;;;;;;;6284300;28;20038;-59
2024/03/03 02:18:14;;;;;;;;;;;;;;;;;;6285358;28;19993;-60
2024/03/03 02:21:22;;;;;;;;;;;;;;;;;;6317837;28;20167;-58
2024/03/03 02:24:25;;;;;;;;;;;;;;;;;;6285098;28;19959;-59
2024/03/03 02:27:29;;;;;;;;;;;;;;;;;;6285956;28;19979;-59
2024/03/03 02:30:33;;;;;;;;;;;;;;;;;;6285342;28;19984;-60
2024/03/03 02:33:36;;;;;;;;;;;;;;;;;;6283619;28;19984;-60
2024/03/03 02:36:42;;;;;;;;;;;;;;;;;;6284938;28;19999;-60
2024/03/03 02:39:46;;;;;;;;;;;;;;;;;;6284036;28;19979;-59
2024/03/03 02:42:50;;;;;;;;;;;;;;;;;;6284255;28;19999;-59
2024/03/03 02:45:53;;;;;;;;;;;;;;;;;;6283294;28;19980;-59
2024/03/03 02:48:57;;;;;;;;;;;;;;;;;;6283772;28;20072;-59
2024/03/03 02:52:02;;;;;;;;;;;;;;;;;;6285063;28;19983;-59
2024/03/03 02:55:06;;;;;;;;;;;;;;;;;;6284491;28;19983;-60
2024/03/03 02:58:09;;;;;;;;;;;;;;;;;;6285019;28;20144;-59
2024/03/03 03:01:14;;;;;;;;;;;;;;;;;;6283851;28;20213;-58
2024/03/03 03:04:17;;;;;;;;;;;;;;;;;;6283282;28;19999;-61
2024/03/03 03:07:22;;;;;;;;;;;;;;;;;;6285180;28;19988;-59
2024/03/03 03:10:26;;;;;;;;;;;;;;;;;;6284527;28;19996;-60
2024/03/03 03:13:30;;;;;;;;;;;;;;;;;;6316894;28;20083;-60
2024/03/03 03:16:33;;;;;;;;;;;;;;;;;;6283614;28;19980;-59
2024/03/03 03:19:37;;;;;;;;;;;;;;;;;;6316576;28;20003;-60
2024/03/03 03:22:42;;;;;;;;;;;;;;;;;;6284888;28;19979;-60
2024/03/03 03:25:46;;;;;;;;;;;;;;;;;;6284715;28;19980;-60
2024/03/03 03:28:49;;;;;;;;;;;;;;;;;;6283232;28;20004;-60
2024/03/03 03:31:53;;;;;;;;;;;;;;;;;;6284918;28;20168;-60
2024/03/03 03:34:57;;;;;;;;;;;;;;;;;;6284653;28;19992;-60
2024/03/03 03:38:02;;;;;;;;;;;;;;;;;;6285178;28;19980;-59
2024/03/03 03:41:06;;;;;;;;;;;;;;;;;;6284162;28;19980;-60
2024/03/03 03:44:10;;;;;;;;;;;;;;;;;;6284180;28;19984;-60
2024/03/03 03:47:14;;;;;;;;;;;;;;;;;;6284851;28;19984;-60
2024/03/03 03:50:18;;;;;;;;;;;;;;;;;;6284486;28;20260;-60
2024/03/03 03:53:23;;;;;;;;;;;;;;;;;;6284112;28;20249;-61
2024/03/03 03:56:26;;;;;;;;;;;;;;;;;;6284908;28;19988;-60
2024/03/03 03:59:30;;;;;;;;;;;;;;;;;;6284344;28;19987;-60
2024/03/03 04:02:33;;;;;;;;;;;;;;;;;;6285738;28;20168;-59
2024/03/03 04:05:37;;;;;;;;;;;;;;;;;;6287854;28;20240;-59
2024/03/03 04:08:42;;;;;;;;;;;;;;;;;;6288855;28;20184;-59
2024/03/03 04:11:45;;;;;;;;;;;;;;;;;;6289024;28;19979;-59
2024/03/03 04:14:49;;;;;;;;;;;;;;;;;;6288775;28;19992;-59
2024/03/03 04:17:52;;;;;;;;;;;;;;;;;;6288616;28;19984;-59
2024/03/03 04:20:56;;;;;;;;;;;;;;;;;;6289114;28;19992;-59
2024/03/03 04:24:01;;;;;;;;;;;;;;;;;;6288226;28;19979;-60
2024/03/03 04:27:04;;;;;;;;;;;;;;;;;;6289060;28;19988;-60
2024/03/03 04:30:08;;;;;;;;;;;;;;;;;;6288449;28;19989;-59
2024/03/03 04:33:12;;;;;;;;;;;;;;;;;;6288165;28;19983;-59
2024/03/03 04:36:16;;;;;;;;;;;;;;;;;;6288741;28;19984;-60
2024/03/03 04:39:21;;;;;;;;;;;;;;;;;;6288291;28;20159;-61
2024/03/03 04:42:24;;;;;;;;;;;;;;;;;;6288717;28;19987;-62
2024/03/03 04:45:28;;;;;;;;;;;;;;;;;;6287930;28;19988;-59
2024/03/03 04:48:31;;;;;;;;;;;;;;;;;;6287345;28;19984;-59
2024/03/03 04:51:35;;;;;;;;;;;;;;;;;;6287951;28;19984;-59
2024/03/03 04:54:40;;;;;;;;;;;;;;;;;;6287386;28;20071;-59
2024/03/03 04:57:43;;;;;;;;;;;;;;;;;;6287347;28;19991;-59
2024/03/03 05:00:47;;;;;;;;;;;;;;;;;;6286893;28;19987;-59
2024/03/03 05:03:50;;;;;;;;;;;;;;;;;;6286927;28;19983;-60
2024/03/03 05:06:54;;;;;;;;;;;;;;;;;;6287334;28;19989;-59
2024/03/03 05:09:59;;;;;;;;;;;;;;;;;;6284725;28;19992;-59
2024/03/03 05:13:03;;;;;;;;;;;;;;;;;;6286914;28;19988;-60
2024/03/03 05:16:07;;;;;;;;;;;;;;;;;;6287715;28;19984;-59
2024/03/03 05:19:11;;;;;;;;;;;;;;;;;;6287032;28;20160;-60
2024/03/03 05:22:14;;;;;;;;;;;;;;;;;;6287543;28;19988;-59
2024/03/03 05:25:19;;;;;;;;;;;;;;;;;;6287015;28;19984;-59
2024/03/03 05:28:23;;;;;;;;;;;;;;;;;;6286741;28;20015;-59
2024/03/03 05:31:28;;;;;;;;;;;;;;;;;;6285888;28;19992;-60
2024/03/03 05:34:31;;;;;;;;;;;;;;;;;;6286171;28;19987;-60
2024/03/03 05:37:35;;;;;;;;;;;;;;;;;;6287241;28;19980;-59
2024/03/03 05:40:40;;;;;;;;;;;;;;;;;;6286474;28;19995;-60
2024/03/03 05:43:43;;;;;;;;;;;;;;;;;;6286500;28;19984;-60
2024/03/03 05:46:47;;;;;;;;;;;;;;;;;;6286970;28;20063;-60
2024/03/03 05:49:51;;;;;;;;;;;;;;;;;;6286372;28;19996;-60
2024/03/03 05:52:54;;;;;;;;;;;;;;;;;;6285999;28;20055;-60
2024/03/03 05:55:59;;;;;;;;;;;;;;;;;;6286926;28;20003;-59
2024/03/03 05:59:03;;;;;;;;;;;;;;;;;;6286104;28;19992;-60
2024/03/03 06:02:06;;;;;;;;;;;;;;;;;;6286723;28;19999;-59
2024/03/03 06:05:10;;;;;;;;;;;;;;;;;;6286396;28;19984;-60
2024/03/03 06:08:16;;;;;;;;;;;;;;;;;;6285957;28;19987;-59
2024/03/03 06:11:21;;;;;;;;;;;;;;;;;;6286400;28;20148;-58
2024/03/03 06:14:24;;;;;;;;;;;;;;;;;;6285967;28;20064;-59
2024/03/03 06:17:28;;;;;;;;;;;;;;;;;;6286607;28;19980;-60
2024/03/03 06:20:32;;;;;;;;;;;;;;;;;;6285960;28;19987;-59
2024/03/03 06:23:36;;;;;;;;;;;;;;;;;;6285321;28;19984;-59
2024/03/03 06:26:41;;;;;;;;;;;;;;;;;;6286135;28;19976;-60
2024/03/03 06:29:45;;;;;;;;;;;;;;;;;;6285631;28;19992;-59
2024/03/03 06:32:49;;;;;;;;;;;;;;;;;;6284820;28;19988;-60
2024/03/03 06:35:53;;;;;;;;;;;;;;;;;;6286091;28;19980;-59
2024/03/03 06:38:56;;;;;;;;;;;;;;;;;;6285577;28;19988;-59
2024/03/03 06:42:02;;;;;;;;;;;;;;;;;;6285929;28;20091;-60
2024/03/03 06:45:06;;;;;;;;;;;;;;;;;;6285255;28;19984;-60
2024/03/03 06:48:11;;;;;;;;;;;;;;;;;;6285303;28;19984;-60
2024/03/03 06:51:14;;;;;;;;;;;;;;;;;;6285553;28;20170;-60
2024/03/03 06:54:18;;;;;;;;;;;;;;;;;;6284956;28;20237;-60
2024/03/03 06:57:23;;;;;;;;;;;;;;;;;;6285724;28;19983;-60
2024/03/03 07:00:26;;;;;;;;;;;;;;;;;;6284925;28;19976;-60
2024/03/03 07:03:49;;;;;;;;;;;;;;;;;;6285088;28;19993;-59
2024/03/03 07:06:53;;;;;;;;;;;;;;;;;;6284203;28;19988;-58
2024/03/03 07:09:57;;;;;;;;;;;;;;;;;;6284717;28;19987;-60
2024/03/03 07:13:02;;;;;;;;;;;;;;;;;;6284495;28;19983;-60
2024/03/03 07:16:07;;;;;;;;;;;;;;;;;;6285167;28;19987;-60
2024/03/03 07:19:10;;;;;;;;;;;;;;;;;;6284393;28;19983;-59
2024/03/03 07:22:14;;;;;;;;;;;;;;;;;;6285130;28;19987;-60
2024/03/03 07:25:18;;;;;;;;;;;;;;;;;;6284496;28;20023;-59
2024/03/03 07:28:23;;;;;;;;;;;;;;;;;;6284137;28;19996;-59
2024/03/03 07:31:27;;;;;;;;;;;;;;;;;;6285066;28;19981;-58
2024/03/03 07:34:30;;;;;;;;;;;;;;;;;;6284309;28;20000;-59
2024/03/03 07:37:34;;;;;;;;;;;;;;;;;;6286706;28;20225;-59
2024/03/03 07:40:41;;;;;;;;;;;;;;;;;;6288024;28;19992;-59
2024/03/03 07:43:47;;;;;;;;;;;;;;;;;;6288827;28;20004;-59
2024/03/03 07:46:50;;;;;;;;;;;;;;;;;;6289646;28;19995;-58
2024/03/03 07:49:54;;;;;;;;;;;;;;;;;;6289057;28;19996;-58
2024/03/03 07:52:58;;;;;;;;;;;;;;;;;;6288865;28;19988;-58
2024/03/03 07:56:01;;;;;;;;;;;;;;;;;;6288983;28;20274;-59
2024/03/03 07:59:06;;;;;;;;;;;;;;;;;;6288750;28;19987;-59
2024/03/03 08:02:09;;;;;;;;;;;;;;;;;;6289106;28;19991;-60
2024/03/03 08:05:13;;;;;;;;;;;;;;;;;;6288965;28;19988;-60
2024/03/03 08:08:16;;;;;;;;;;;;;;;;;;6288915;28;20248;-60
2024/03/03 08:11:20;;;;;;;;;;;;;;;;;;6289388;28;19979;-59
2024/03/03 08:14:25;;;;;;;;;;;;;;;;;;6288918;28;20158;-59
2024/03/03 08:17:28;;;;;;;;;;;;;;;;;;6289185;28;19996;-59
2024/03/03 08:20:32;;;;;;;;;;;;;;;;;;6288711;28;19988;-60
2024/03/03 08:23:35;;;;;;;;;;;;;;;;;;6288362;28;20251;-60
2024/03/03 08:26:39;;;;;;;;;;;;;;;;;;6289008;28;19983;-60
2024/03/03 08:29:44;;;;;;;;;;;;;;;;;;6288314;28;19984;-60
2024/03/03 08:32:47;;;;;;;;;;;;;;;;;;6288201;28;20051;-61
2024/03/03 08:35:51;;;;;;;;;;;;;;;;;;6288840;28;19988;-60
2024/03/03 08:38:54;;;;;;;;;;;;;;;;;;6288272;28;19987;-60
2024/03/03 08:41:58;;;;;;;;;;;;;;;;;;6288694;28;19992;-60
2024/03/03 08:45:03;;;;;;;;;;;;;;;;;;6287786;28;19996;-60
2024/03/03 08:48:07;;;;;;;;;;;;;;;;;;6287503;28;20252;-60
2024/03/03 08:51:11;;;;;;;;;;;;;;;;;;6288653;28;19983;-60
2024/03/03 08:54:14;;;;;;;;;;;;;;;;;;6281105;28;19988;-61
2024/03/03 08:57:18;;;;;;;;;;;;;;;;;;6263372;28;19984;-60
2024/03/03 09:00:22;;;;;;;;;;;;;;;;;;6262815;28;19984;-60
2024/03/03 09:03:26;;;;;;;;;;;;;;;;;;6262740;28;19992;-61
2024/03/03 09:06:29;;;;;;;;;;;;;;;;;;6263173;28;20188;-61
2024/03/03 09:09:34;;;;;;;;;;;;;;;;;;6262808;28;19992;-60
2024/03/03 09:12:42;;;;;;;;;;;;;;;;;;6286732;28;19999;-61
2024/03/03 09:15:47;;;;;;;;;;;;;;;;;;6287402;28;20259;-60
2024/03/03 09:18:53;;;;;;;;;;;;;;;;;;6287381;28;19983;-60
2024/03/03 09:21:57;;;;;;;;;;;;;;;;;;6287457;28;20000;-60
2024/03/03 09:25:01;;;;;;;;;;;;;;;;;;6287232;28;20064;-62
2024/03/03 09:28:04;;;;;;;;;;;;;;;;;;6287399;28;20177;-61
2024/03/03 09:31:09;;;;;;;;;;;;;;;;;;6287534;28;19984;-61
2024/03/03 09:34:13;;;;;;;;;;;;;;;;;;6286754;28;20164;-61
2024/03/03 09:37:16;;;;;;;;;;;;;;;;;;6287160;28;20087;-60
2024/03/03 09:40:20;;;;;;;;;;;;;;;;;;6286988;28;19991;-61
2024/03/03 09:43:23;;;;;;;;;;;;;;;;;;6286278;28;19992;-60
2024/03/03 09:46:29;;;;;;;;;;;;;;;;;;6286403;28;20000;-60
2024/03/03 09:49:32;;;;;;;;;;;;;;;;;;6286131;28;19989;-61
2024/03/03 09:52:38;;;;;;;;;;;;;;;;;;6287825;28;19984;-61
2024/03/03 09:55:43;;;;;;;;;;;;;;;;;;6285969;28;19992;-59
2024/03/03 09:58:47;;;;;;;;;;;;;;;;;;6286134;28;19991;-61
2024/03/03 10:01:54;;;;;;;;;;;;;;;;;;6286750;28;19979;-61
2024/03/03 10:04:58;;;;;;;;;;;;;;;;;;6286639;28;19987;-61
2024/03/03 10:08:02;;;;;;;;;;;;;;;;;;6285938;28;20067;-62
2024/03/03 10:11:07;;;;;;;;;;;;;;;;;;6285881;28;19992;-60
2024/03/03 10:14:11;;;;;;;;;;;;;;;;;;6285909;28;20266;-60
2024/03/03 10:17:16;;;;;;;;;;;;;;;;;;6285825;28;19983;-59
2024/03/03 10:20:19;;;;;;;;;;;;;;;;;;6285559;28;19987;-59
2024/03/03 10:23:24;;;;;;;;;;;;;;;;;;6285567;28;19992;-59
2024/03/03 10:26:35;;;;;;;;;;;;;;;;;;6286047;28;19988;-59
2024/03/03 10:29:40;;;;;;;;;;;;;;;;;;6285594;28;19995;-59
2024/03/03 10:32:45;;;;;;;;;;;;;;;;;;6285910;28;20257;-60
2024/03/03 10:35:53;;;;;;;;;;;;;;;;;;6285091;28;19984;-60
2024/03/03 10:38:57;;;;;;;;;;;;;;;;;;6285502;28;19984;-59
2024/03/03 10:42:00;;;;;;;;;;;;;;;;;;6285624;28;19991;-60
2024/03/03 10:45:06;;;;;;;;;;;;;;;;;;6285042;28;19992;-60
2024/03/03 10:48:12;;;;;;;;;;;;;;;;;;6285025;28;19996;-60
2024/03/03 10:51:17;;;;;;;;;;;;;;;;;;6285384;28;19999;-60
2024/03/03 10:54:22;;;;;;;;;;;;;;;;;;6284558;28;19976;-60
2024/03/03 10:57:26;;;;;;;;;;;;;;;;;;6285186;28;19984;-60
2024/03/03 11:00:29;;;;;;;;;;;;;;;;;;6284923;28;19988;-60
2024/03/03 11:03:35;;;;;;;;;;;;;;;;;;6285167;28;20012;-62
2024/03/03 11:06:38;;;;;;;;;;;;;;;;;;6284797;28;19988;-60
2024/03/03 11:09:42;;;;;;;;;;;;;;;;;;6284130;28;19983;-60
2024/03/03 11:12:47;;;;;;;;;;;;;;;;;;6289621;28;20277;-60
2024/03/03 11:15:51;;;;;;;;;;;;;;;;;;6288591;28;19988;-60
2024/03/03 11:18:57;;;;;;;;;;;;;;;;;;6289486;28;19980;-60
2024/03/03 11:22:02;;;;;;;;;;;;;;;;;;6289687;28;19983;-60
2024/03/03 11:25:07;;;;;;;;;;;;;;;;;;6289470;28;19988;-60
2024/03/03 11:28:11;;;;;;;;;;;;;;;;;;6289174;28;19999;-60
2024/03/03 11:31:17;;;;;;;;;;;;;;;;;;6289566;28;19992;-60
2024/03/03 11:34:22;;;;;;;;;;;;;;;;;;6289364;28;20106;-61
2024/03/03 11:37:27;;;;;;;;;;;;;;;;;;6289943;28;19992;-60
2024/03/03 11:40:32;;;;;;;;;;;;;;;;;;6288664;28;19992;-61
2024/03/03 11:43:36;;;;;;;;;;;;;;;;;;6289166;28;19984;-61
2024/03/03 11:46:45;;;;;;;;;;;;;;;;;;6289721;28;19988;-61
2024/03/03 11:49:51;;;;;;;;;;;;;;;;;;6289560;28;19997;-61
2024/03/03 11:52:54;;;;;;;;;;;;;;;;;;6289030;28;20000;-61
2024/03/03 11:55:58;;;;;;;;;;;;;;;;;;6288764;28;20152;-60
2024/03/03 11:59:01;;;;;;;;;;;;;;;;;;6288624;28;19987;-60
2024/03/03 12:02:05;;;;;;;;;;;;;;;;;;6289159;28;19995;-62
2024/03/03 12:05:11;;;;;;;;;;;;;;;;;;6288936;28;20182;-61
2024/03/03 12:08:14;;;;;;;;;;;;;;;;;;6288858;28;19983;-61
2024/03/03 12:11:21;;;;;;;;;;;;;;;;;;6289238;28;20160;-62
2024/03/03 12:14:25;;;;;;;;;;;;;;;;;;6288606;28;20007;-61
2024/03/03 12:17:30;;;;;;;;;;;;;;;;;;6288221;28;19980;-60
2024/03/03 12:20:36;;;;;;;;;;;;;;;;;;6288657;28;19993;-61
2024/03/03 12:23:40;;;;;;;;;;;;;;;;;;6287224;28;19984;-61
2024/03/03 12:26:43;;;;;;;;;;;;;;;;;;6287050;28;19987;-60
2024/03/03 12:29:57;;;;;;;;;;;;;;;;;;6288116;28;20168;-61
2024/03/03 12:33:01;;;;;;;;;;;;;;;;;;6288119;28;19992;-59
2024/03/03 12:36:06;;;;;;;;;;;;;;;;;;6289130;28;20000;-61
2024/03/03 12:39:10;;;;;;;;;;;;;;;;;;6288487;28;20169;-61
2024/03/03 12:42:14;;;;;;;;;;;;;;;;;;6288470;28;19985;-60
2024/03/03 12:45:17;;;;;;;;;;;;;;;;;;6287784;28;19988;-61
2024/03/03 12:48:21;;;;;;;;;;;;;;;;;;6287977;28;19987;-60
2024/03/03 12:51:27;;;;;;;;;;;;;;;;;;6288278;28;20019;-60
2024/03/03 12:54:30;;;;;;;;;;;;;;;;;;6287157;28;19979;-61
2024/03/03 12:57:34;;;;;;;;;;;;;;;;;;6287811;28;19988;-61
2024/03/03 13:00:37;;;;;;;;;;;;;;;;;;6287739;28;19984;-61
2024/03/03 13:03:41;;;;;;;;;;;;;;;;;;6286870;28;20003;-60
2024/03/03 13:06:51;;;;;;;;;;;;;;;;;;6285328;28;19980;-61
2024/03/03 13:10:17;;;;;;;;;;;;;;;;;;6362077;27;19927;-61
2024/03/03 13:13:20;;;;;;;;;;;;;;;;;;6356871;28;20011;-60
2024/03/03 13:16:25;;;;;;;;;;;;;;;;;;6357320;28;19988;-60
2024/03/03 13:19:44;;;;;;;;;;;;;;;;;;6328222;28;19927;-60
2024/03/03 13:22:48;;;;;;;;;;;;;;;;;;6304293;28;19982;-61
2024/03/03 13:25:53;;;;;;;;;;;;;;;;;;6306679;28;19979;-60
2024/03/03 13:28:56;;;;;;;;;;;;;;;;;;6306180;28;19984;-60
2024/03/03 13:32:00;;;;;;;;;;;;;;;;;;6306424;28;19992;-60
2024/03/03 13:35:04;;;;;;;;;;;;;;;;;;6306027;28;19987;-60
2024/03/03 13:38:08;;;;;;;;;;;;;;;;;;6306182;28;19984;-61
2024/03/03 13:41:13;;;;;;;;;;;;;;;;;;6306284;28;20229;-63
2024/03/03 13:44:17;;;;;;;;;;;;;;;;;;6306049;28;20152;-61
2024/03/03 13:47:21;;;;;;;;;;;;;;;;;;6306438;28;20142;-60
2024/03/03 13:50:25;;;;;;;;;;;;;;;;;;6305982;28;20163;-61
2024/03/03 13:53:28;;;;;;;;;;;;;;;;;;6305866;28;19979;-61
2024/03/03 13:56:33;;;;;;;;;;;;;;;;;;6306193;28;19979;-61
2024/03/03 13:59:37;;;;;;;;;;;;;;;;;;6305593;28;19995;-62
2024/03/03 14:02:40;;;;;;;;;;;;;;;;;;6306068;28;19979;-61
2024/03/03 14:05:44;;;;;;;;;;;;;;;;;;6305597;28;20079;-61
2024/03/03 14:08:47;;;;;;;;;;;;;;;;;;6307156;28;19987;-61
2024/03/03 14:11:52;;;;;;;;;;;;;;;;;;6307788;28;19983;-60
2024/03/03 14:14:55;;;;;;;;;;;;;;;;;;6307298;28;19987;-61
2024/03/03 14:17:59;;;;;;;;;;;;;;;;;;6307295;28;19979;-61
2024/03/03 14:21:04;;;;;;;;;;;;;;;;;;6293600;28;19983;-61
2024/03/03 14:24:08;;;;;;;;;;;;;;;;;;6288570;28;19983;-61
2024/03/03 14:27:13;;;;;;;;;;;;;;;;;;6290599;28;19980;-61
2024/03/03 14:30:16;;;;;;;;;;;;;;;;;;6289236;28;19991;-61
2024/03/03 14:33:19;;;;;;;;;;;;;;;;;;6289146;28;19992;-61
2024/03/03 14:36:23;;;;;;;;;;;;;;;;;;6289170;28;19984;-59
2024/03/03 14:39:26;;;;;;;;;;;;;;;;;;6288722;28;19979;-59
2024/03/03 14:42:32;;;;;;;;;;;;;;;;;;6288879;28;20008;-59
2024/03/03 14:45:35;;;;;;;;;;;;;;;;;;6288033;28;20000;-59
2024/03/03 14:48:40;;;;;;;;;;;;;;;;;;6287929;28;20148;-61
2024/03/03 14:51:43;;;;;;;;;;;;;;;;;;6287120;28;19988;-60
2024/03/03 14:54:47;;;;;;;;;;;;;;;;;;6290619;28;19984;-59
2024/03/03 14:57:52;;;;;;;;;;;;;;;;;;6295479;28;19991;-61
2024/03/03 15:00:56;;;;;;;;;;;;;;;;;;6295625;28;19997;-62
2024/03/03 15:03:59;;;;;;;;;;;;;;;;;;6292662;28;19995;-61
2024/03/03 15:07:04;;;;;;;;;;;;;;;;;;6294690;28;19984;-61
2024/03/03 15:10:08;;;;;;;;;;;;;;;;;;6287542;28;19987;-61
2024/03/03 15:13:13;;;;;;;;;;;;;;;;;;6294378;28;20176;-62
2024/03/03 15:16:16;;;;;;;;;;;;;;;;;;6294479;28;19983;-59
2024/03/03 15:19:20;;;;;;;;;;;;;;;;;;6291277;28;19983;-61
2024/03/03 15:22:24;;;;;;;;;;;;;;;;;;6294021;28;19984;-60
2024/03/03 15:25:27;;;;;;;;;;;;;;;;;;6288306;28;19988;-61
2024/03/03 15:28:32;;;;;;;;;;;;;;;;;;6293128;28;20253;-61
2024/03/03 15:31:37;;;;;;;;;;;;;;;;;;6292136;28;20225;-60
2024/03/03 15:34:40;;;;;;;;;;;;;;;;;;6289687;28;19987;-61
2024/03/03 15:37:43;;;;;;;;;;;;;;;;;;6292355;28;20052;-61
2024/03/03 15:40:47;;;;;;;;;;;;;;;;;;6286556;28;20000;-61
2024/03/03 15:43:52;;;;;;;;;;;;;;;;;;6291374;28;19988;-60
2024/03/03 15:46:55;;;;;;;;;;;;;;;;;;6291992;28;20004;-60
2024/03/03 15:49:59;;;;;;;;;;;;;;;;;;6289454;28;19983;-62
2024/03/03 15:53:03;;;;;;;;;;;;;;;;;;6291594;28;19987;-61
2024/03/03 15:56:06;;;;;;;;;;;;;;;;;;6290865;28;19980;-60
2024/03/03 15:59:11;;;;;;;;;;;;;;;;;;6290065;28;20000;-61
2024/03/03 16:02:17;;;;;;;;;;;;;;;;;;6290613;28;20170;-60
2024/03/03 16:05:20;;;;;;;;;;;;;;;;;;6286504;28;20209;-60
2024/03/03 16:08:25;;;;;;;;;;;;;;;;;;6285933;28;19984;-61
2024/03/03 16:11:28;;;;;;;;;;;;;;;;;;6286130;28;19984;-61
2024/03/03 16:14:33;;;;;;;;;;;;;;;;;;6286152;28;19983;-62
2024/03/03 16:17:38;;;;;;;;;;;;;;;;;;6287190;28;19987;-62
2024/03/03 16:20:42;;;;;;;;;;;;;;;;;;6286594;28;19988;-62
2024/03/03 16:23:45;;;;;;;;;;;;;;;;;;6286585;28;19983;-61
2024/03/03 16:26:49;;;;;;;;;;;;;;;;;;6286889;28;19993;-61
2024/03/03 16:29:54;;;;;;;;;;;;;;;;;;6285743;28;19988;-62
2024/03/03 16:32:57;;;;;;;;;;;;;;;;;;6285626;28;20004;-61
2024/03/03 16:36:04;;;;;;;;;;;;;;;;;;6285732;28;19979;-59
2024/03/03 16:39:08;;;;;;;;;;;;;;;;;;6284045;28;19988;-59
2024/03/03 16:42:11;;;;;;;;;;;;;;;;;;6283482;28;19992;-60
2024/03/03 16:45:16;;;;;;;;;;;;;;;;;;6285341;28;19989;-59
2024/03/03 16:48:20;;;;;;;;;;;;;;;;;;6285274;28;19991;-60
2024/03/03 16:51:23;;;;;;;;;;;;;;;;;;6285239;28;19976;-61
2024/03/03 16:54:27;;;;;;;;;;;;;;;;;;6285426;28;20005;-59
2024/03/03 16:57:31;;;;;;;;;;;;;;;;;;6285447;28;19988;-60
2024/03/03 17:00:36;;;;;;;;;;;;;;;;;;6284833;28;19987;-59
2024/03/03 17:03:40;;;;;;;;;;;;;;;;;;6284221;28;19976;-61
2024/03/03 17:06:43;;;;;;;;;;;;;;;;;;6285695;28;19987;-61
2024/03/03 17:09:47;;;;;;;;;;;;;;;;;;6284429;28;19988;-59
2024/03/03 17:12:52;;;;;;;;;;;;;;;;;;6285117;28;19992;-59
2024/03/03 17:15:57;;;;;;;;;;;;;;;;;;6285761;28;20141;-61
2024/03/03 17:19:00;;;;;;;;;;;;;;;;;;6285055;28;19987;-60
2024/03/03 17:22:04;;;;;;;;;;;;;;;;;;6285573;28;19996;-60
2024/03/03 17:25:08;;;;;;;;;;;;;;;;;;6284915;28;19996;-59
2024/03/03 17:28:12;;;;;;;;;;;;;;;;;;6284852;28;20159;-62
2024/03/03 17:31:17;;;;;;;;;;;;;;;;;;6284777;28;19984;-59
2024/03/03 17:34:21;;;;;;;;;;;;;;;;;;6283139;28;19983;-60
2024/03/03 17:37:24;;;;;;;;;;;;;;;;;;6285444;28;20268;-60
2024/03/03 17:40:28;;;;;;;;;;;;;;;;;;6284695;28;19991;-60
2024/03/03 17:43:32;;;;;;;;;;;;;;;;;;6284522;28;19988;-60
2024/03/03 17:46:37;;;;;;;;;;;;;;;;;;6285101;28;20158;-59
2024/03/03 17:49:41;;;;;;;;;;;;;;;;;;6284395;28;20071;-61
2024/03/03 17:52:45;;;;;;;;;;;;;;;;;;6284654;28;20252;-61
2024/03/03 17:55:50;;;;;;;;;;;;;;;;;;6286889;28;19979;-60
2024/03/03 17:58:54;;;;;;;;;;;;;;;;;;6289259;28;20008;-60
2024/03/03 18:01:59;;;;;;;;;;;;;;;;;;6289636;28;20164;-63
2024/03/03 18:05:04;;;;;;;;;;;;;;;;;;6288989;28;20005;-61
2024/03/03 18:08:08;;;;;;;;;;;;;;;;;;6288289;28;20073;-60
2024/03/03 18:11:11;;;;;;;;;;;;;;;;;;6288804;28;19983;-60
2024/03/03 18:14:16;;;;;;;;;;;;;;;;;;6288686;28;19988;-61
2024/03/03 18:17:20;;;;;;;;;;;;;;;;;;6289180;28;19984;-60
2024/03/03 18:23:46;;;;;;;;;;;;;;;;;;6288986;28;19988;-60
2024/03/03 18:26:50;;;;;;;;;;;;;;;;;;6287240;28;19995;-59
2024/03/03 18:29:54;;;;;;;;;;;;;;;;;;6288530;28;20161;-60
2024/03/03 18:32:59;;;;;;;;;;;;;;;;;;6287981;28;19988;-60
2024/03/03 18:36:03;;;;;;;;;;;;;;;;;;6288219;28;19987;-60
2024/03/03 18:39:10;;;;;;;;;;;;;;;;;;6288804;28;20133;-61
2024/03/03 18:42:14;;;;;;;;;;;;;;;;;;6288975;28;20111;-62
2024/03/03 18:45:18;;;;;;;;;;;;;;;;;;6289197;28;20205;-61
2024/03/03 18:48:24;;;;;;;;;;;;;;;;;;6287968;28;20059;-61
2024/03/03 18:51:29;;;;;;;;;;;;;;;;;;6288026;28;19979;-61
2024/03/03 18:54:32;;;;;;;;;;;;;;;;;;6288498;28;20156;-59
2024/03/03 18:57:36;;;;;;;;;;;;;;;;;;6288061;28;19984;-59
2024/03/03 19:00:39;;;;;;;;;;;;;;;;;;6287150;28;19987;-62
2024/03/03 19:03:45;;;;;;;;;;;;;;;;;;6287993;28;19988;-61
2024/03/03 19:06:49;;;;;;;;;;;;;;;;;;6287895;28;19980;-60
2024/03/03 19:09:54;;;;;;;;;;;;;;;;;;6285527;28;19988;-60
2024/03/03 19:12:58;;;;;;;;;;;;;;;;;;6287260;28;20154;-59
2024/03/03 19:16:02;;;;;;;;;;;;;;;;;;6287485;28;19996;-59
2024/03/03 19:19:07;;;;;;;;;;;;;;;;;;6287645;28;19984;-60
2024/03/03 19:22:11;;;;;;;;;;;;;;;;;;6287278;28;20160;-59
2024/03/03 19:25:15;;;;;;;;;;;;;;;;;;6288013;28;20004;-60
2024/03/03 19:28:19;;;;;;;;;;;;;;;;;;6287113;28;19980;-60
2024/03/03 19:31:23;;;;;;;;;;;;;;;;;;6286755;28;19979;-59
2024/03/03 19:34:29;;;;;;;;;;;;;;;;;;6287230;28;19981;-60
2024/03/03 19:37:34;;;;;;;;;;;;;;;;;;6286875;28;20181;-59
2024/03/03 19:40:38;;;;;;;;;;;;;;;;;;6286992;28;19976;-60
2024/03/03 19:43:44;;;;;;;;;;;;;;;;;;6287012;28;19980;-60
2024/03/03 19:46:47;;;;;;;;;;;;;;;;;;6286410;28;19980;-61
2024/03/03 19:49:52;;;;;;;;;;;;;;;;;;6286818;28;20000;-60
2024/03/03 19:52:55;;;;;;;;;;;;;;;;;;6286371;28;19987;-60
2024/03/03 19:55:59;;;;;;;;;;;;;;;;;;6286702;28;19996;-60
2024/03/03 19:59:03;;;;;;;;;;;;;;;;;;6286659;28;19996;-60
2024/03/03 20:02:06;;;;;;;;;;;;;;;;;;6286256;28;19992;-60
2024/03/03 20:05:11;;;;;;;;;;;;;;;;;;6286899;28;19983;-60
2024/03/03 20:08:17;;;;;;;;;;;;;;;;;;6285646;28;19988;-60
2024/03/03 20:11:20;;;;;;;;;;;;;;;;;;6286266;28;19995;-60
2024/03/03 20:14:24;;;;;;;;;;;;;;;;;;6286809;28;20036;-61
2024/03/03 20:17:28;;;;;;;;;;;;;;;;;;6285023;28;19996;-60
2024/03/03 20:20:33;;;;;;;;;;;;;;;;;;6285905;28;19986;-59
2024/03/03 20:23:36;;;;;;;;;;;;;;;;;;6285980;28;19983;-59
2024/03/03 20:26:41;;;;;;;;;;;;;;;;;;6285554;28;20000;-61
2024/03/03 20:29:44;;;;;;;;;;;;;;;;;;6286085;28;19984;-59
2024/03/03 20:32:48;;;;;;;;;;;;;;;;;;6285445;28;19980;-59
2024/03/03 20:35:53;;;;;;;;;;;;;;;;;;6285522;28;20192;-60
2024/03/03 20:38:57;;;;;;;;;;;;;;;;;;6286190;28;19996;-59
2024/03/03 20:42:01;;;;;;;;;;;;;;;;;;6285608;28;19984;-60
2024/03/03 20:45:05;;;;;;;;;;;;;;;;;;6285999;28;19979;-60
2024/03/03 20:48:09;;;;;;;;;;;;;;;;;;6285305;28;19979;-60
2024/03/03 20:51:17;;;;;;;;;;;;;;;;;;6285422;28;20000;-59
2024/03/03 20:54:20;;;;;;;;;;;;;;;;;;6285444;28;19980;-60
2024/03/03 20:57:25;;;;;;;;;;;;;;;;;;6285350;28;20229;-59
2024/03/03 21:00:28;;;;;;;;;;;;;;;;;;6285196;28;20099;-59